Time;durP1;ratioP1;P1;durP2;ratioP2;P2;SDS_P1;SDS_P2;PMS_P1;PMS_P2;Temp;Humidity;BMP_temperature;BMP_pressure;BME280_temperature;BME280_humidity;BME280_pressure;Samples;Min_cycle;Max_cycle;Signal;HPM_P1;HPM_P2
2023/07/17 00:01:15;;;;;;;0.03;0.03;;;;;;;;;;5033796;28;20030;-85
2023/07/17 00:03:41;;;;;;;0.00;0.00;;;;;;;;;;5033186;28;20025;-85
2023/07/17 00:06:07;;;;;;;0.00;0.00;;;;;;;;;;5033121;28;20112;-85
2023/07/17 00:08:33;;;;;;;0.00;0.00;;;;;;;;;;5033275;28;20076;-85
2023/07/17 00:10:59;;;;;;;0.00;0.00;;;;;;;;;;5031971;28;20025;-85
2023/07/17 00:13:26;;;;;;;0.00;0.00;;;;;;;;;;5033769;28;20033;-85
2023/07/17 00:15:52;;;;;;;0.10;0.10;;;;;;;;;;5032750;28;20098;-84
2023/07/17 00:18:18;;;;;;;0.10;0.10;;;;;;;;;;5033168;28;20045;-85
2023/07/17 00:20:44;;;;;;;0.10;0.10;;;;;;;;;;5032613;28;20102;-84
2023/07/17 00:23:10;;;;;;;0.03;0.03;;;;;;;;;;5032873;28;20032;-85
2023/07/17 00:25:36;;;;;;;0.05;0.05;;;;;;;;;;5033180;28;20155;-84
2023/07/17 00:28:02;;;;;;;0.10;0.10;;;;;;;;;;5032474;28;20104;-85
2023/07/17 00:30:28;;;;;;;0.00;0.00;;;;;;;;;;5032921;28;20025;-85
2023/07/17 00:32:53;;;;;;;0.10;0.10;;;;;;;;;;5032810;28;20449;-84
2023/07/17 00:35:20;;;;;;;0.00;0.00;;;;;;;;;;5032783;28;20060;-84
2023/07/17 00:37:46;;;;;;;0.10;0.10;;;;;;;;;;5032617;28;20053;-85
2023/07/17 00:40:12;;;;;;;0.65;0.28;;;;;;;;;;5032396;28;20486;-84
2023/07/17 00:42:39;;;;;;;0.00;0.00;;;;;;;;;;5032637;28;20056;-85
2023/07/17 00:45:05;;;;;;;0.20;0.20;;;;;;;;;;5032457;28;20032;-85
2023/07/17 00:47:32;;;;;;;0.10;0.10;;;;;;;;;;5032504;28;20112;-85
2023/07/17 00:49:58;;;;;;;0.10;0.10;;;;;;;;;;5032318;28;20037;-85
2023/07/17 00:52:24;;;;;;;0.08;0.08;;;;;;;;;;5032316;28;20036;-85
2023/07/17 00:54:51;;;;;;;0.10;0.10;;;;;;;;;;5032232;28;20021;-85
2023/07/17 00:57:18;;;;;;;0.13;0.13;;;;;;;;;;5032287;28;20029;-85
2023/07/17 00:59:44;;;;;;;0.20;0.20;;;;;;;;;;5032459;28;20039;-85
2023/07/17 01:02:10;;;;;;;0.03;0.03;;;;;;;;;;5031884;28;20362;-85
2023/07/17 01:04:37;;;;;;;0.00;0.00;;;;;;;;;;5032302;28;20037;-85
2023/07/17 01:07:03;;;;;;;0.00;0.00;;;;;;;;;;5032504;28;20025;-85
2023/07/17 01:09:29;;;;;;;0.10;0.10;;;;;;;;;;5032130;28;20025;-85
2023/07/17 01:11:55;;;;;;;0.10;0.10;;;;;;;;;;5032457;28;20626;-85
2023/07/17 01:14:21;;;;;;;0.10;0.10;;;;;;;;;;5032023;28;20100;-85
2023/07/17 01:16:48;;;;;;;0.10;0.10;;;;;;;;;;5030147;28;20137;-85
2023/07/17 01:19:14;;;;;;;0.15;0.15;;;;;;;;;;5032040;28;20044;-85
2023/07/17 01:21:44;;;;;;;0.15;0.15;;;;;;;;;;5032161;28;20022;-85
2023/07/17 01:24:10;;;;;;;0.30;0.30;;;;;;;;;;5031872;28;20033;-85
2023/07/17 01:26:36;;;;;;;0.00;0.00;;;;;;;;;;5032202;28;20041;-85
2023/07/17 01:29:02;;;;;;;0.10;0.10;;;;;;;;;;5031807;28;20120;-84
2023/07/17 01:31:28;;;;;;;0.13;0.10;;;;;;;;;;5032198;28;20025;-85
2023/07/17 01:33:54;;;;;;;0.20;0.20;;;;;;;;;;5032202;28;20025;-86
2023/07/17 01:36:20;;;;;;;0.10;0.10;;;;;;;;;;5031950;28;20030;-85
2023/07/17 01:38:46;;;;;;;0.20;0.20;;;;;;;;;;5032302;28;20057;-85
2023/07/17 01:41:12;;;;;;;2.33;0.20;;;;;;;;;;5031737;28;20037;-85
2023/07/17 01:43:38;;;;;;;0.10;0.10;;;;;;;;;;5031675;28;20057;-85
2023/07/17 01:46:04;;;;;;;0.00;0.00;;;;;;;;;;5031363;28;20033;-85
2023/07/17 01:48:30;;;;;;;0.20;0.10;;;;;;;;;;5032202;28;20028;-85
2023/07/17 01:50:56;;;;;;;0.00;0.00;;;;;;;;;;5031521;28;20029;-85
2023/07/17 01:53:22;;;;;;;0.05;0.05;;;;;;;;;;5031752;28;20033;-85
2023/07/17 01:55:49;;;;;;;0.10;0.10;;;;;;;;;;5031596;28;20033;-84
2023/07/17 01:58:15;;;;;;;0.10;0.10;;;;;;;;;;5031973;28;20470;-85
2023/07/17 02:00:41;;;;;;;0.10;0.10;;;;;;;;;;5031291;28;20075;-85
2023/07/17 02:03:07;;;;;;;0.52;0.22;;;;;;;;;;5031960;28;20041;-85
2023/07/17 02:05:33;;;;;;;0.00;0.00;;;;;;;;;;5031493;28;20034;-85
2023/07/17 02:07:59;;;;;;;0.10;0.10;;;;;;;;;;5031571;28;20029;-85
2023/07/17 02:10:25;;;;;;;1.45;0.63;;;;;;;;;;5031704;28;20029;-85
2023/07/17 02:12:51;;;;;;;0.10;0.10;;;;;;;;;;5031561;28;20028;-85
2023/07/17 02:15:17;;;;;;;0.10;0.10;;;;;;;;;;5030921;28;20034;-85
2023/07/17 02:17:43;;;;;;;0.00;0.00;;;;;;;;;;5031621;28;20103;-85
2023/07/17 02:20:10;;;;;;;0.00;0.00;;;;;;;;;;5031524;28;20073;-85
2023/07/17 02:22:36;;;;;;;0.20;0.20;;;;;;;;;;5029937;28;20474;-85
2023/07/17 02:25:03;;;;;;;0.40;0.40;;;;;;;;;;5032328;28;20036;-85
2023/07/17 02:27:29;;;;;;;0.00;0.00;;;;;;;;;;5031549;28;20053;-85
2023/07/17 02:29:54;;;;;;;0.10;0.10;;;;;;;;;;5031358;28;20426;-85
2023/07/17 02:32:20;;;;;;;0.00;0.00;;;;;;;;;;5031346;28;20030;-85
2023/07/17 02:34:46;;;;;;;0.10;0.10;;;;;;;;;;5033123;28;20033;-85
2023/07/17 02:37:12;;;;;;;0.20;0.20;;;;;;;;;;5034787;28;20021;-85
2023/07/17 02:39:38;;;;;;;0.08;0.08;;;;;;;;;;5035405;28;20063;-85
2023/07/17 02:42:05;;;;;;;0.20;0.20;;;;;;;;;;5034771;28;20494;-85
2023/07/17 02:44:30;;;;;;;0.00;0.00;;;;;;;;;;5034491;28;20389;-85
2023/07/17 02:46:56;;;;;;;0.13;0.13;;;;;;;;;;5035138;28;20067;-85
2023/07/17 02:49:22;;;;;;;0.22;0.22;;;;;;;;;;5034881;28;20370;-85
2023/07/17 02:51:48;;;;;;;0.38;0.38;;;;;;;;;;5034764;28;20108;-85
2023/07/17 02:54:14;;;;;;;0.10;0.10;;;;;;;;;;5034614;28;20036;-85
2023/07/17 02:56:41;;;;;;;0.47;0.28;;;;;;;;;;5035080;28;20018;-85
2023/07/17 02:59:07;;;;;;;0.13;0.13;;;;;;;;;;5034608;28;20120;-85
2023/07/17 03:01:33;;;;;;;0.00;0.00;;;;;;;;;;5034762;28;20045;-85
2023/07/17 03:03:59;;;;;;;0.03;0.03;;;;;;;;;;5034677;28;20064;-85
2023/07/17 03:06:25;;;;;;;0.10;0.10;;;;;;;;;;5034271;28;20022;-85
2023/07/17 03:08:51;;;;;;;0.10;0.10;;;;;;;;;;5034409;28;20129;-85
2023/07/17 03:11:17;;;;;;;0.10;0.10;;;;;;;;;;5034328;28;20582;-85
2023/07/17 03:13:43;;;;;;;0.15;0.15;;;;;;;;;;5034229;28;20049;-85
2023/07/17 03:16:09;;;;;;;0.10;0.10;;;;;;;;;;5034304;28;20045;-85
2023/07/17 03:18:35;;;;;;;0.10;0.10;;;;;;;;;;5034104;28;20032;-85
2023/07/17 03:21:01;;;;;;;0.08;0.08;;;;;;;;;;5034116;28;20034;-85
2023/07/17 03:23:27;;;;;;;0.08;0.08;;;;;;;;;;5034153;28;20017;-84
2023/07/17 03:25:53;;;;;;;0.10;0.10;;;;;;;;;;5034057;28;20030;-85
2023/07/17 03:28:19;;;;;;;0.10;0.10;;;;;;;;;;5034105;28;20036;-85
2023/07/17 03:30:45;;;;;;;0.65;0.65;;;;;;;;;;5033865;28;20156;-85
2023/07/17 03:33:11;;;;;;;0.08;0.05;;;;;;;;;;5033763;28;20030;-85
2023/07/17 03:35:37;;;;;;;0.05;0.05;;;;;;;;;;5033935;28;20018;-85
2023/07/17 03:38:03;;;;;;;0.43;0.30;;;;;;;;;;5033997;28;20104;-85
2023/07/17 03:40:29;;;;;;;0.20;0.20;;;;;;;;;;5034287;28;20095;-85
2023/07/17 03:42:55;;;;;;;0.10;0.10;;;;;;;;;;5033476;28;20053;-85
2023/07/17 03:45:21;;;;;;;0.28;0.28;;;;;;;;;;5033595;28;20059;-85
2023/07/17 03:47:50;;;;;;;0.10;0.10;;;;;;;;;;5033569;28;20025;-85
2023/07/17 03:50:16;;;;;;;0.00;0.00;;;;;;;;;;5033607;28;20030;-85
2023/07/17 03:52:42;;;;;;;0.10;0.10;;;;;;;;;;5033890;28;20075;-85
2023/07/17 03:55:08;;;;;;;0.10;0.10;;;;;;;;;;5033327;28;20558;-85
2023/07/17 03:57:34;;;;;;;0.00;0.00;;;;;;;;;;5033161;28;20026;-85
2023/07/17 04:00:00;;;;;;;0.10;0.10;;;;;;;;;;5033453;28;20037;-85
2023/07/17 04:02:26;;;;;;;0.28;0.28;;;;;;;;;;5033291;28;20408;-85
2023/07/17 04:04:52;;;;;;;0.30;0.30;;;;;;;;;;5034055;28;20034;-85
2023/07/17 04:07:18;;;;;;;0.00;0.00;;;;;;;;;;5033359;28;20022;-85
2023/07/17 04:09:44;;;;;;;0.00;0.00;;;;;;;;;;5033517;28;20033;-85
2023/07/17 04:12:11;;;;;;;0.10;0.10;;;;;;;;;;5032945;28;20029;-85
2023/07/17 04:14:37;;;;;;;0.20;0.20;;;;;;;;;;5033012;28;20490;-85
2023/07/17 04:17:04;;;;;;;0.13;0.13;;;;;;;;;;5032632;28;20446;-85
2023/07/17 04:19:30;;;;;;;0.10;0.10;;;;;;;;;;5033113;28;20034;-85
2023/07/17 04:21:56;;;;;;;0.00;0.00;;;;;;;;;;5033255;28;20554;-85
2023/07/17 04:24:23;;;;;;;0.00;0.00;;;;;;;;;;5032681;28;20057;-85
2023/07/17 04:26:50;;;;;;;0.10;0.10;;;;;;;;;;5032902;28;20038;-85
2023/07/17 04:29:16;;;;;;;0.10;0.10;;;;;;;;;;5032728;28;20053;-85
2023/07/17 04:31:42;;;;;;;0.10;0.10;;;;;;;;;;5032740;28;20025;-85
2023/07/17 04:34:08;;;;;;;0.00;0.00;;;;;;;;;;5032867;28;20029;-85
2023/07/17 04:36:34;;;;;;;0.10;0.10;;;;;;;;;;5032706;28;20017;-85
2023/07/17 04:39:04;;;;;;;0.10;0.10;;;;;;;;;;5032638;28;20509;-85
2023/07/17 04:41:30;;;;;;;0.10;0.10;;;;;;;;;;5030829;28;20030;-85
2023/07/17 04:43:56;;;;;;;0.10;0.10;;;;;;;;;;5032923;28;20450;-85
2023/07/17 04:46:23;;;;;;;0.20;0.17;;;;;;;;;;5032429;28;20029;-85
2023/07/17 04:48:49;;;;;;;0.10;0.10;;;;;;;;;;5032490;28;20018;-86
2023/07/17 04:51:15;;;;;;;0.10;0.10;;;;;;;;;;5032883;28;20037;-85
2023/07/17 04:53:41;;;;;;;0.32;0.20;;;;;;;;;;5032269;28;20402;-85
2023/07/17 04:56:07;;;;;;;0.10;0.10;;;;;;;;;;5031856;28;20155;-85
2023/07/17 04:58:33;;;;;;;0.10;0.10;;;;;;;;;;5031846;28;20034;-84
2023/07/17 05:00:59;;;;;;;0.00;0.00;;;;;;;;;;5032091;28;20034;-85
2023/07/17 05:03:27;;;;;;;0.05;0.05;;;;;;;;;;5032389;28;20024;-85
2023/07/17 05:05:54;;;;;;;0.10;0.10;;;;;;;;;;5032481;28;20036;-85
2023/07/17 05:08:20;;;;;;;0.35;0.10;;;;;;;;;;5032200;28;20025;-84
2023/07/17 05:11:04;;;;;;;0.05;0.05;;;;;;;;;;5032088;28;20505;-85
2023/07/17 05:13:30;;;;;;;0.10;0.10;;;;;;;;;;5032444;28;20048;-84
2023/07/17 05:15:57;;;;;;;0.20;0.20;;;;;;;;;;5030574;28;20085;-85
2023/07/17 05:18:23;;;;;;;0.70;0.40;;;;;;;;;;5031851;28;20029;-85
2023/07/17 05:20:49;;;;;;;0.60;0.60;;;;;;;;;;5032627;28;20064;-84
2023/07/17 05:23:16;;;;;;;0.20;0.20;;;;;;;;;;5031681;28;20022;-85
2023/07/17 05:25:52;;;;;;;0.95;0.30;;;;;;;;;;5032092;28;20028;-85
2023/07/17 05:28:17;;;;;;;0.30;0.30;;;;;;;;;;5031940;28;20480;-85
2023/07/17 05:30:43;;;;;;;0.10;0.10;;;;;;;;;;5032203;28;20028;-85
2023/07/17 05:33:09;;;;;;;0.45;0.20;;;;;;;;;;5031917;28;20038;-85
2023/07/17 05:35:35;;;;;;;0.10;0.10;;;;;;;;;;5031810;28;20097;-84
2023/07/17 05:38:01;;;;;;;0.98;0.57;;;;;;;;;;5031712;28;20433;-85
2023/07/17 05:40:27;;;;;;;0.30;0.28;;;;;;;;;;5031705;28;20021;-85
2023/07/17 05:42:53;;;;;;;0.15;0.15;;;;;;;;;;5031691;28;20386;-85
2023/07/17 05:45:19;;;;;;;0.10;0.10;;;;;;;;;;5032092;28;20036;-85
2023/07/17 05:47:45;;;;;;;0.10;0.10;;;;;;;;;;5031678;28;20025;-85
2023/07/17 05:50:11;;;;;;;0.10;0.10;;;;;;;;;;5031921;28;20382;-85
2023/07/17 05:52:37;;;;;;;0.10;0.10;;;;;;;;;;5031919;28;20104;-85
2023/07/17 05:55:04;;;;;;;0.20;0.20;;;;;;;;;;5031665;28;20028;-85
2023/07/17 05:57:30;;;;;;;0.28;0.28;;;;;;;;;;5031675;28;20029;-85
2023/07/17 05:59:56;;;;;;;0.10;0.10;;;;;;;;;;5031533;28;20108;-85
2023/07/17 06:02:22;;;;;;;0.13;0.10;;;;;;;;;;5032272;28;20029;-85
2023/07/17 06:04:47;;;;;;;0.10;0.10;;;;;;;;;;5031805;28;20433;-85
2023/07/17 06:07:13;;;;;;;0.10;0.10;;;;;;;;;;5031113;28;20030;-85
2023/07/17 06:09:40;;;;;;;0.08;0.08;;;;;;;;;;5034894;28;20029;-85
2023/07/17 06:12:07;;;;;;;0.28;0.22;;;;;;;;;;5035216;28;20025;-81
2023/07/17 06:14:33;;;;;;;0.15;0.15;;;;;;;;;;5052616;28;20113;-82
2023/07/17 06:16:59;;;;;;;0.10;0.10;;;;;;;;;;5053662;28;20497;-82
2023/07/17 06:19:25;;;;;;;3.60;0.82;;;;;;;;;;5043943;28;20033;-83
2023/07/17 06:21:51;;;;;;;0.20;0.20;;;;;;;;;;5042052;28;20470;-82
2023/07/17 06:24:17;;;;;;;0.15;0.15;;;;;;;;;;5036104;28;20052;-82
2023/07/17 06:26:43;;;;;;;0.28;0.28;;;;;;;;;;5036213;28;20037;-82
2023/07/17 06:29:10;;;;;;;0.43;0.43;;;;;;;;;;5042822;28;20517;-82
2023/07/17 06:31:37;;;;;;;0.63;0.35;;;;;;;;;;5044970;28;20033;-82
2023/07/17 06:34:03;;;;;;;0.10;0.10;;;;;;;;;;5041583;28;20029;-82
2023/07/17 06:36:30;;;;;;;1.00;0.20;;;;;;;;;;5035327;28;20219;-81
2023/07/17 06:38:56;;;;;;;0.10;0.10;;;;;;;;;;5035323;28;20405;-83
2023/07/17 06:41:22;;;;;;;0.20;0.20;;;;;;;;;;5042641;28;20037;-83
2023/07/17 06:43:48;;;;;;;1.55;0.55;;;;;;;;;;5036063;28;20017;-86
2023/07/17 06:46:14;;;;;;;0.35;0.35;;;;;;;;;;5034847;28;20026;-83
2023/07/17 06:48:41;;;;;;;0.40;0.40;;;;;;;;;;5042090;28;20025;-82
2023/07/17 06:51:07;;;;;;;0.10;0.10;;;;;;;;;;5036624;28;20017;-82
2023/07/17 06:53:34;;;;;;;0.17;0.17;;;;;;;;;;5034794;28;20508;-82
2023/07/17 06:56:00;;;;;;;0.30;0.30;;;;;;;;;;5052565;28;20078;-82
2023/07/17 06:58:27;;;;;;;0.60;0.50;;;;;;;;;;5054994;28;20111;-86
2023/07/17 07:00:59;;;;;;;0.73;0.40;;;;;;;;;;5042647;28;20029;-88
2023/07/17 07:03:26;;;;;;;6.15;0.85;;;;;;;;;;5040587;28;20026;-89
2023/07/17 07:05:56;;;;;;;0.10;0.10;;;;;;;;;;5035058;28;20033;-83
2023/07/17 07:08:22;;;;;;;0.20;0.20;;;;;;;;;;5036592;28;20037;-88
2023/07/17 07:10:50;;;;;;;0.20;0.20;;;;;;;;;;5038705;28;20482;-86
2023/07/17 07:13:16;;;;;;;0.85;0.55;;;;;;;;;;5032482;28;20029;-85
2023/07/17 07:15:43;;;;;;;0.38;0.38;;;;;;;;;;5035316;28;20532;-85
2023/07/17 07:18:09;;;;;;;0.30;0.30;;;;;;;;;;5034893;28;20064;-94
2023/07/17 07:20:35;;;;;;;0.17;0.17;;;;;;;;;;5034867;28;20505;-91
2023/07/17 07:23:01;;;;;;;0.10;0.10;;;;;;;;;;5042490;28;20036;-93
2023/07/17 07:25:27;;;;;;;0.10;0.10;;;;;;;;;;5056902;28;20036;-95
2023/07/17 07:27:53;;;;;;;0.10;0.10;;;;;;;;;;5047130;28;20026;-88
2023/07/17 07:30:19;;;;;;;0.20;0.20;;;;;;;;;;5034545;28;20060;-86
2023/07/17 07:32:45;;;;;;;0.70;0.22;;;;;;;;;;5045766;28;20060;-87
2023/07/17 07:35:11;;;;;;;0.00;0.00;;;;;;;;;;5034074;28;20389;-87
2023/07/17 07:37:37;;;;;;;1.40;0.38;;;;;;;;;;5033342;28;20056;-88
2023/07/17 07:40:06;;;;;;;0.20;0.20;;;;;;;;;;5033510;28;20525;-88
2023/07/17 07:42:32;;;;;;;0.30;0.30;;;;;;;;;;5036688;28;20371;-87
2023/07/17 07:44:58;;;;;;;0.35;0.35;;;;;;;;;;5041035;28;20037;-89
2023/07/17 07:47:24;;;;;;;0.20;0.20;;;;;;;;;;5054843;28;20473;-94
2023/07/17 07:49:50;;;;;;;0.20;0.20;;;;;;;;;;5050171;28;20030;-91
2023/07/17 07:52:16;;;;;;;0.17;0.17;;;;;;;;;;5034726;28;20159;-92
2023/07/17 07:54:46;;;;;;;1.88;0.28;;;;;;;;;;5035471;28;20055;-93
2023/07/17 07:57:12;;;;;;;0.13;0.13;;;;;;;;;;5046653;28;20025;-94
2023/07/17 07:59:38;;;;;;;0.05;0.05;;;;;;;;;;5044529;28;20045;-91
2023/07/17 08:02:04;;;;;;;0.10;0.08;;;;;;;;;;5055111;28;20032;-94
2023/07/17 08:04:32;;;;;;;0.10;0.10;;;;;;;;;;5053968;28;20052;-93
2023/07/17 08:07:05;;;;;;;0.17;0.17;;;;;;;;;;5053542;28;20032;-95
2023/07/17 08:09:31;;;;;;;0.20;0.20;;;;;;;;;;5053932;28;20032;-95
2023/07/17 08:11:57;;;;;;;0.10;0.10;;;;;;;;;;5054204;28;20029;-94
2023/07/17 08:14:23;;;;;;;0.20;0.20;;;;;;;;;;5047178;28;20028;-94
2023/07/17 08:16:52;;;;;;;0.08;0.08;;;;;;;;;;5047393;28;20135;-96
2023/07/17 08:19:19;;;;;;;0.15;0.15;;;;;;;;;;5054177;28;20098;-94
2023/07/17 08:21:45;;;;;;;0.10;0.10;;;;;;;;;;5052398;28;20033;-95
2023/07/17 08:24:17;;;;;;;1.02;0.30;;;;;;;;;;5041609;28;20029;-94
2023/07/17 08:26:43;;;;;;;0.20;0.20;;;;;;;;;;5042084;28;20025;-94
2023/07/17 08:29:12;;;;;;;0.10;0.10;;;;;;;;;;5035580;28;20030;-95
2023/07/17 08:31:39;;;;;;;0.68;0.38;;;;;;;;;;5042292;28;20029;-94
2023/07/17 08:34:05;;;;;;;0.15;0.15;;;;;;;;;;5055008;28;20083;-94
2023/07/17 08:36:31;;;;;;;0.52;0.47;;;;;;;;;;5044187;28;20030;-94
2023/07/17 08:38:57;;;;;;;1.35;0.40;;;;;;;;;;5034823;28;20037;-94
2023/07/17 08:41:24;;;;;;;0.52;0.43;;;;;;;;;;5051838;28;20025;-94
2023/07/17 08:43:50;;;;;;;0.28;0.28;;;;;;;;;;5051863;28;20033;-95
2023/07/17 08:46:16;;;;;;;0.10;0.10;;;;;;;;;;5033916;28;20025;-94
2023/07/17 08:48:47;;;;;;;0.03;0.03;;;;;;;;;;5034608;28;20025;-93
2023/07/17 08:51:14;;;;;;;0.20;0.20;;;;;;;;;;5037100;28;20091;-96
2023/07/17 08:53:41;;;;;;;0.13;0.13;;;;;;;;;;5039046;28;20037;-96
2023/07/17 08:56:08;;;;;;;1.88;0.75;;;;;;;;;;5038910;28;20029;-96
2023/07/17 08:58:35;;;;;;;0.10;0.10;;;;;;;;;;5041073;28;20037;-96
2023/07/17 09:01:02;;;;;;;0.00;0.00;;;;;;;;;;5059832;28;20115;-96
2023/07/17 09:03:31;;;;;;;0.73;0.30;;;;;;;;;;5050660;28;20021;-96
2023/07/17 09:05:57;;;;;;;0.17;0.10;;;;;;;;;;5040798;28;20046;-96
2023/07/17 09:08:23;;;;;;;0.52;0.32;;;;;;;;;;5039884;28;20033;-96
2023/07/17 09:11:08;;;;;;;0.10;0.10;;;;;;;;;;5037984;28;20472;-96
2023/07/17 09:13:42;;;;;;;0.10;0.10;;;;;;;;;;5057597;28;20133;-96
2023/07/17 09:16:18;;;;;;;0.50;0.30;;;;;;;;;;5053362;28;20033;-96
2023/07/17 09:18:45;;;;;;;0.65;0.52;;;;;;;;;;5017291;28;20127;-96
2023/07/17 09:21:12;;;;;;;0.10;0.10;;;;;;;;;;5027521;28;20481;-96
2023/07/17 09:23:39;;;;;;;0.10;0.10;;;;;;;;;;5058200;28;20037;-96
2023/07/17 09:26:15;;;;;;;1.08;0.45;;;;;;;;;;5052235;28;20030;-96
2023/07/17 09:28:49;;;;;;;0.65;0.65;;;;;;;;;;5034440;28;20076;-92
2023/07/17 09:31:15;;;;;;;0.28;0.28;;;;;;;;;;5033089;28;20104;-90
2023/07/17 09:33:41;;;;;;;0.10;0.10;;;;;;;;;;5033871;28;20021;-91
2023/07/17 09:36:11;;;;;;;0.15;0.15;;;;;;;;;;5035189;28;20093;-91
2023/07/17 09:38:37;;;;;;;0.00;0.00;;;;;;;;;;5029524;28;20464;-91
2023/07/17 09:41:16;;;;;;;0.22;0.20;;;;;;;;;;5033523;28;20034;-91
2023/07/17 09:43:43;;;;;;;0.68;0.30;;;;;;;;;;5039240;28;20022;-91
2023/07/17 09:46:09;;;;;;;0.00;0.00;;;;;;;;;;5058969;28;20036;-91
2023/07/17 09:48:35;;;;;;;0.32;0.32;;;;;;;;;;5043635;28;20027;-92
2023/07/17 09:51:03;;;;;;;0.30;0.30;;;;;;;;;;5040079;28;20029;-91
2023/07/17 09:53:29;;;;;;;0.38;0.32;;;;;;;;;;5039660;28;20064;-91
2023/07/17 09:55:56;;;;;;;0.30;0.20;;;;;;;;;;5039623;28;20105;-91
2023/07/17 09:58:25;;;;;;;0.00;0.00;;;;;;;;;;5037818;28;20029;-90
2023/07/17 10:00:54;;;;;;;14.60;0.90;;;;;;;;;;5059451;28;20025;-91
2023/07/17 10:03:21;;;;;;;0.32;0.17;;;;;;;;;;5058173;28;20033;-92
2023/07/17 10:05:48;;;;;;;0.13;0.13;;;;;;;;;;5057443;28;20024;-92
2023/07/17 10:08:15;;;;;;;0.40;0.40;;;;;;;;;;5054702;28;20079;-93
2023/07/17 10:10:41;;;;;;;0.52;0.52;;;;;;;;;;5042316;28;20052;-93
2023/07/17 10:13:08;;;;;;;0.08;0.08;;;;;;;;;;5043748;28;20033;-95
2023/07/17 10:15:34;;;;;;;0.00;0.00;;;;;;;;;;5039766;28;20056;-93
2023/07/17 10:18:00;;;;;;;0.17;0.17;;;;;;;;;;5024431;28;20080;-92
2023/07/17 10:20:29;;;;;;;1.08;0.45;;;;;;;;;;5031335;28;20464;-93
2023/07/17 10:22:56;;;;;;;0.20;0.10;;;;;;;;;;5040634;28;20040;-94
2023/07/17 10:25:21;;;;;;;0.25;0.25;;;;;;;;;;5048236;28;20025;-94
2023/07/17 10:27:49;;;;;;;1.08;0.10;;;;;;;;;;5045018;28;20036;-91
2023/07/17 10:30:22;;;;;;;0.38;0.30;;;;;;;;;;5039152;28;20022;-91
2023/07/17 10:32:50;;;;;;;0.40;0.40;;;;;;;;;;5053629;28;20516;-92
2023/07/17 10:35:19;;;;;;;0.10;0.10;;;;;;;;;;5039367;28;20048;-92
2023/07/17 10:37:45;;;;;;;0.10;0.10;;;;;;;;;;5042306;28;20040;-93
2023/07/17 10:40:28;;;;;;;0.32;0.17;;;;;;;;;;5037702;28;20124;-91
2023/07/17 10:42:55;;;;;;;0.15;0.15;;;;;;;;;;5041915;28;20116;-92
2023/07/17 10:45:21;;;;;;;1.75;0.52;;;;;;;;;;5047145;28;20033;-94
2023/07/17 10:47:50;;;;;;;0.43;0.40;;;;;;;;;;5043071;28;20021;-95
2023/07/17 10:50:19;;;;;;;0.20;0.20;;;;;;;;;;5047448;28;20025;-94
2023/07/17 10:52:45;;;;;;;0.20;0.20;;;;;;;;;;5040785;28;20024;-96
2023/07/17 10:55:11;;;;;;;0.10;0.10;;;;;;;;;;5035724;28;20108;-87
2023/07/17 10:57:40;;;;;;;1.02;1.02;;;;;;;;;;5042797;28;20121;-89
2023/07/17 11:00:06;;;;;;;0.20;0.20;;;;;;;;;;5053723;28;20037;-90
2023/07/17 11:02:33;;;;;;;14.05;1.25;;;;;;;;;;5056995;28;20023;-96
2023/07/17 11:05:01;;;;;;;0.28;0.28;;;;;;;;;;5055863;28;20032;-90
2023/07/17 11:07:31;;;;;;;0.30;0.30;;;;;;;;;;5050663;28;20021;-88
2023/07/17 11:09:57;;;;;;;0.10;0.10;;;;;;;;;;5035848;28;20033;-89
2023/07/17 11:12:27;;;;;;;0.10;0.10;;;;;;;;;;5038557;28;20036;-88
2023/07/17 11:14:53;;;;;;;0.10;0.10;;;;;;;;;;5036644;28;20022;-89
2023/07/17 11:17:19;;;;;;;2.08;1.00;;;;;;;;;;5036377;28;20524;-88
2023/07/17 11:19:45;;;;;;;0.20;0.20;;;;;;;;;;5051298;28;20037;-89
2023/07/17 11:22:13;;;;;;;0.00;0.00;;;;;;;;;;5054568;28;20032;-89
2023/07/17 11:24:39;;;;;;;0.30;0.30;;;;;;;;;;5014459;28;20030;-89
2023/07/17 11:27:05;;;;;;;0.43;0.20;;;;;;;;;;5015080;28;20030;-89
2023/07/17 11:29:36;;;;;;;0.35;0.35;;;;;;;;;;5015684;28;20490;-89
2023/07/17 11:32:03;;;;;;;0.30;0.30;;;;;;;;;;5014018;28;20080;-89
2023/07/17 11:34:29;;;;;;;0.32;0.32;;;;;;;;;;5015305;28;20038;-89
2023/07/17 11:36:55;;;;;;;0.17;0.17;;;;;;;;;;5015754;28;20045;-89
2023/07/17 11:39:22;;;;;;;0.25;0.25;;;;;;;;;;5015172;28;20050;-89
2023/07/17 11:41:49;;;;;;;0.00;0.00;;;;;;;;;;5014859;28;20022;-89
2023/07/17 11:44:16;;;;;;;0.30;0.30;;;;;;;;;;5015209;28;20060;-89
2023/07/17 11:46:43;;;;;;;0.32;0.20;;;;;;;;;;5015407;28;20060;-89
2023/07/17 11:49:10;;;;;;;0.13;0.13;;;;;;;;;;5015140;28;20037;-89
2023/07/17 11:51:41;;;;;;;0.28;0.28;;;;;;;;;;5032911;28;20029;-89
2023/07/17 11:54:07;;;;;;;0.28;0.28;;;;;;;;;;5034742;28;20032;-89
2023/07/17 11:56:34;;;;;;;0.22;0.20;;;;;;;;;;5034519;28;20026;-88
2023/07/17 11:59:00;;;;;;;0.50;0.50;;;;;;;;;;5034658;28;20048;-88
2023/07/17 12:01:26;;;;;;;0.63;0.20;;;;;;;;;;5033281;28;20390;-89
2023/07/17 12:03:52;;;;;;;1.08;0.25;;;;;;;;;;5035066;28;20029;-89
2023/07/17 12:06:18;;;;;;;0.38;0.38;;;;;;;;;;5034575;28;20029;-89
2023/07/17 12:08:46;;;;;;;2.30;0.98;;;;;;;;;;5034341;28;20173;-89
2023/07/17 12:11:12;;;;;;;0.22;0.22;;;;;;;;;;5034569;28;20029;-89
2023/07/17 12:13:38;;;;;;;0.55;0.20;;;;;;;;;;5034308;28;20025;-90
2023/07/17 12:16:05;;;;;;;1.50;0.38;;;;;;;;;;5034037;28;20524;-89
2023/07/17 12:18:31;;;;;;;0.20;0.20;;;;;;;;;;5032970;28;20029;-90
2023/07/17 12:20:57;;;;;;;0.22;0.22;;;;;;;;;;5033220;28;20021;-89
2023/07/17 12:23:23;;;;;;;0.10;0.10;;;;;;;;;;5033886;28;21067;-89
2023/07/17 12:25:49;;;;;;;0.35;0.17;;;;;;;;;;5034226;28;20030;-89
2023/07/17 12:28:15;;;;;;;0.13;0.13;;;;;;;;;;5034025;28;20500;-90
2023/07/17 12:30:42;;;;;;;0.50;0.20;;;;;;;;;;5032600;28;20477;-90
2023/07/17 12:33:08;;;;;;;0.30;0.30;;;;;;;;;;5034082;28;20029;-89
2023/07/17 12:35:34;;;;;;;0.10;0.10;;;;;;;;;;5033667;28;20028;-89
2023/07/17 12:38:00;;;;;;;0.22;0.22;;;;;;;;;;5032265;28;20029;-89
2023/07/17 12:40:26;;;;;;;0.38;0.38;;;;;;;;;;5032558;28;20499;-89
2023/07/17 12:42:53;;;;;;;0.80;0.30;;;;;;;;;;5032843;28;20025;-90
2023/07/17 12:45:18;;;;;;;0.47;0.40;;;;;;;;;;5033792;28;20086;-89
2023/07/17 12:47:44;;;;;;;0.80;0.38;;;;;;;;;;5032399;28;20499;-90
2023/07/17 12:50:11;;;;;;;0.20;0.20;;;;;;;;;;5033667;28;20056;-89
2023/07/17 12:52:37;;;;;;;0.00;0.00;;;;;;;;;;5033285;28;20429;-89
2023/07/17 12:55:03;;;;;;;0.30;0.30;;;;;;;;;;5033547;28;20488;-90
2023/07/17 12:57:29;;;;;;;0.13;0.13;;;;;;;;;;5033737;28;20025;-89
2023/07/17 12:59:55;;;;;;;0.20;0.20;;;;;;;;;;5032137;28;20132;-90
2023/07/17 13:02:23;;;;;;;5.45;0.38;;;;;;;;;;5033871;28;20053;-89
2023/07/17 13:04:49;;;;;;;0.10;0.10;;;;;;;;;;5033268;28;20112;-90
2023/07/17 13:07:15;;;;;;;1.10;0.73;;;;;;;;;;5032320;28;20052;-90
2023/07/17 13:09:41;;;;;;;0.20;0.20;;;;;;;;;;5033376;28;20402;-89
2023/07/17 13:12:07;;;;;;;0.17;0.17;;;;;;;;;;5033164;28;20017;-90
2023/07/17 13:14:33;;;;;;;0.35;0.13;;;;;;;;;;5033309;28;20555;-89
2023/07/17 13:16:59;;;;;;;0.10;0.10;;;;;;;;;;5033509;28;20042;-90
2023/07/17 13:19:25;;;;;;;0.28;0.20;;;;;;;;;;5032664;28;20099;-90
2023/07/17 13:21:51;;;;;;;0.10;0.10;;;;;;;;;;5032931;28;20021;-90
2023/07/17 13:24:19;;;;;;;0.20;0.20;;;;;;;;;;5033199;28;20053;-90
2023/07/17 13:26:45;;;;;;;0.10;0.10;;;;;;;;;;5033064;28;20071;-90
2023/07/17 13:29:11;;;;;;;0.10;0.10;;;;;;;;;;5033120;28;20032;-90
2023/07/17 13:31:37;;;;;;;0.85;0.40;;;;;;;;;;5032998;28;20029;-90
2023/07/17 13:34:03;;;;;;;0.20;0.20;;;;;;;;;;5033013;28;20029;-90
2023/07/17 13:36:29;;;;;;;0.00;0.00;;;;;;;;;;5032746;28;20022;-90
2023/07/17 13:38:55;;;;;;;0.00;0.00;;;;;;;;;;5033094;28;20386;-89
2023/07/17 13:41:40;;;;;;;0.22;0.10;;;;;;;;;;5032860;28;20030;-90
2023/07/17 13:44:06;;;;;;;0.43;0.43;;;;;;;;;;5033151;28;20048;-90
2023/07/17 13:46:32;;;;;;;0.43;0.30;;;;;;;;;;5033615;28;20029;-90
2023/07/17 13:48:58;;;;;;;0.15;0.15;;;;;;;;;;5033644;28;20036;-89
2023/07/17 13:51:24;;;;;;;0.13;0.13;;;;;;;;;;5032583;28;20029;-89
2023/07/17 13:53:50;;;;;;;1.48;0.30;;;;;;;;;;5033182;28;20033;-89
2023/07/17 13:56:16;;;;;;;0.03;0.03;;;;;;;;;;5032680;28;20029;-89
2023/07/17 13:58:42;;;;;;;0.43;0.32;;;;;;;;;;5032702;28;20398;-90
2023/07/17 14:01:08;;;;;;;0.00;0.00;;;;;;;;;;5032787;28;20030;-90
2023/07/17 14:03:34;;;;;;;0.05;0.05;;;;;;;;;;5032920;28;20033;-89
2023/07/17 14:06:00;;;;;;;1.88;0.60;;;;;;;;;;5031376;28;20125;-89
2023/07/17 14:08:26;;;;;;;0.20;0.20;;;;;;;;;;5033227;28;20017;-90
2023/07/17 14:10:52;;;;;;;0.28;0.10;;;;;;;;;;5032173;28;20061;-90
2023/07/17 14:13:18;;;;;;;0.10;0.10;;;;;;;;;;5032722;28;20021;-90
2023/07/17 14:15:44;;;;;;;0.35;0.35;;;;;;;;;;5031303;28;20099;-90
2023/07/17 14:18:10;;;;;;;0.38;0.38;;;;;;;;;;5032946;28;20109;-90
2023/07/17 14:20:36;;;;;;;0.50;0.40;;;;;;;;;;5032263;28;20096;-90
2023/07/17 14:23:02;;;;;;;0.70;0.32;;;;;;;;;;5031183;28;20029;-90
2023/07/17 14:25:30;;;;;;;0.17;0.17;;;;;;;;;;5032424;28;20460;-90
2023/07/17 14:27:56;;;;;;;0.63;0.43;;;;;;;;;;5032716;28;20033;-90
2023/07/17 14:30:22;;;;;;;0.70;0.70;;;;;;;;;;5034274;28;20109;-90
2023/07/17 14:32:48;;;;;;;0.90;0.63;;;;;;;;;;5036189;28;20036;-90
2023/07/17 14:35:15;;;;;;;0.32;0.32;;;;;;;;;;5034833;28;20021;-90
2023/07/17 14:37:41;;;;;;;0.10;0.10;;;;;;;;;;5036201;28;20120;-90
2023/07/17 14:40:07;;;;;;;0.30;0.17;;;;;;;;;;5036444;28;20120;-90